Niagara University, NY (14109)

5:21 PM EDT on July 30, 2016 (GMT -0400)
Tall Oaks Subdivision- Town of Lewiston, NY | | Change Station

Elev 355 ft 43.18 °N, 79.04 °W | Updated 33 seconds ago

Mostly Cloudy
Mostly Cloudy
76.7 °F
Feels Like 79 °F
N
3.0
Wind Variable Wind from NE
Gusts 4.0 mph

Today
High -- | Low -- °F
--% Chance of Precip.
Yesterday
High -- | Low -- °F
Precip. -- in
Pressure 29.96 in
Visibility 10.0 miles
Clouds Scattered Clouds 4000 ft
Mostly Cloudy 12000 ft
Mostly Cloudy 21000 ft
Mostly Cloudy 30000 ft
Heat Index 79 °F
Dew Point 64 °F
Humidity 65%
Rainfall 0.00 in
Snow Depth Not available.
6:05 AM 8:39 PM
Waning Crescent, 11% visible
METAR KIAG 302053Z 07010KT 10SM SCT040 BKN120 BKN210 BKN300 28/17 A2998 RMK AO2 SLP146 T02780172 56012
Pressure 29.96 in
Visibility 10.0 miles
Clouds Scattered Clouds 4000 ft
Mostly Cloudy 12000 ft
Mostly Cloudy 21000 ft
Mostly Cloudy 30000 ft
Heat Index 79 °F
Dew Point 64 °F
Humidity 65%
Rainfall 0.00 in
Snow Depth Not available.
6:05 AM 8:39 PM
Waning Crescent, 11% visible
METAR KIAG 302053Z 07010KT 10SM SCT040 BKN120 BKN210 BKN300 28/17 A2998 RMK AO2 SLP146 T02780172 56012

10-Day Weather Forecast

Almanac

Astronomy

Jul. 30, 2016 Rise Set
Actual Time
Civil Twilight
Nautical Twilight
Astronomical Twilight
Moon
Length of Visible Light
Length of Day
Tomorrow will be .
, % of the Moon is Illuminated

Today's Extremes

State Highs State Lows

Community

WunderPhotos

Upload Photos

1,928,648 photos uploaded!

WunderBlog® & News

Nearby

Air Quality

  Air Quality AQ Index Pollutant
Not available.

Snow Depth

Station Depth Elevation

Earthquake Activity

City Distance Mag. Time & Date
Minimum magnitude displayed is 2.5.

Coastal Water Temperatures

Place Temperature

Stations

Nearby Weather Stations

Station Location Temp. Windchill Dew Point Humidity Wind Precip. Elev Updated Type
                   

Watches & Warnings

There are currently no watches in effect.